createdAt,value
2018-11-14T00:00:09.148Z,5.61
2018-11-14T00:05:09.745Z,5.87
2018-11-14T00:10:10.411Z,5.49
2018-11-14T00:15:10.985Z,5.47
2018-11-14T00:20:11.690Z,5.83
2018-11-14T00:25:12.254Z,5.81
2018-11-14T00:30:12.893Z,5.74
2018-11-14T00:35:13.481Z,5.68
2018-11-14T00:40:14.093Z,5.73
2018-11-14T00:45:14.680Z,5.81
2018-11-14T00:50:15.279Z,5.78
2018-11-14T00:55:15.931Z,5.80
2018-11-14T01:00:17.618Z,6.65
2018-11-14T01:05:18.253Z,5.89
2018-11-14T01:10:18.910Z,5.72
2018-11-14T01:15:19.561Z,5.67
2018-11-14T01:20:20.202Z,5.34
2018-11-14T01:25:20.850Z,5.42
2018-11-14T01:30:21.493Z,5.16
2018-11-14T01:35:22.077Z,5.24
2018-11-14T01:40:22.684Z,5.28
2018-11-14T01:45:23.249Z,4.94
2018-11-14T01:50:23.880Z,5.00
2018-11-14T01:55:24.544Z,4.98
2018-11-14T02:00:25.172Z,5.02
2018-11-14T02:05:25.758Z,4.92
2018-11-14T02:10:26.380Z,4.99
2018-11-14T02:15:27.016Z,4.93
2018-11-14T02:20:27.679Z,4.60
2018-11-14T02:25:28.328Z,4.69
2018-11-14T02:30:28.985Z,4.78
2018-11-14T02:35:29.655Z,4.47
2018-11-14T02:40:30.239Z,4.48
2018-11-14T02:45:30.824Z,4.58
2018-11-14T02:50:31.478Z,4.39
2018-11-14T02:55:32.045Z,4.34
2018-11-14T03:00:32.674Z,4.27
2018-11-14T03:05:33.323Z,4.16
2018-11-14T03:10:33.966Z,4.18
2018-11-14T03:15:34.620Z,4.18
2018-11-14T03:20:35.202Z,4.05
2018-11-14T03:25:35.817Z,3.83
2018-11-14T03:30:36.464Z,4.03
2018-11-14T03:35:37.106Z,3.98
2018-11-14T03:40:37.693Z,3.67
2018-11-14T03:45:38.306Z,3.56
2018-11-14T03:50:38.950Z,3.62
2018-11-14T03:55:39.606Z,3.89
2018-11-14T04:00:40.194Z,3.71
2018-11-14T04:05:40.798Z,3.91
2018-11-14T04:10:41.449Z,3.85
2018-11-14T04:15:42.098Z,3.14
2018-11-14T04:20:42.754Z,3.58
2018-11-14T04:25:43.336Z,3.81
2018-11-14T04:30:43.947Z,3.95
2018-11-14T04:35:44.577Z,3.90
2018-11-14T04:40:45.255Z,3.60
2018-11-14T04:45:45.829Z,3.59
2018-11-14T04:50:46.436Z,3.41
2018-11-14T04:55:47.148Z,3.41
2018-11-14T05:00:47.723Z,3.37
2018-11-14T05:05:48.380Z,3.46
2018-11-14T05:10:49.033Z,3.45
2018-11-14T05:15:49.678Z,3.37
2018-11-14T05:20:50.322Z,3.45
2018-11-14T05:25:50.897Z,3.08
2018-11-14T05:30:51.517Z,3.48
2018-11-14T05:35:52.185Z,2.85
2018-11-14T05:40:52.826Z,3.08
2018-11-14T05:45:53.477Z,2.80
2018-11-14T05:50:54.127Z,2.80
2018-11-14T05:55:54.761Z,2.52
2018-11-14T06:00:56.448Z,2.81
2018-11-14T06:05:57.099Z,3.10
2018-11-14T06:10:57.746Z,3.48
2018-11-14T06:15:59.451Z,3.51
2018-11-14T06:21:00.073Z,3.46
2018-11-14T06:26:00.650Z,3.64
2018-11-14T06:31:01.260Z,3.43
2018-11-14T06:36:02.062Z,3.82
2018-11-14T06:41:02.794Z,4.21
2018-11-14T06:46:04.153Z,4.15
2018-11-14T06:51:06.491Z,3.79
2018-11-14T06:56:07.447Z,3.61
2018-11-14T07:01:08.207Z,3.66
2018-11-14T07:06:08.992Z,3.91
2018-11-14T07:11:09.720Z,3.98
2018-11-14T07:16:10.505Z,4.15
2018-11-14T07:21:11.311Z,4.46
2018-11-14T07:26:12.091Z,4.34
2018-11-14T07:31:12.903Z,4.68
2018-11-14T07:36:13.672Z,4.05
2018-11-14T07:41:14.465Z,4.18
2018-11-14T07:46:15.233Z,3.07
2018-11-14T07:51:16.770Z,3.64
2018-11-14T07:56:17.485Z,3.86
2018-11-14T08:01:18.333Z,3.36
2018-11-14T08:06:19.173Z,4.01
2018-11-14T08:11:20.841Z,3.64
2018-11-14T08:16:21.598Z,3.90
2018-11-14T08:21:22.356Z,4.17
2018-11-14T08:26:23.163Z,4.26
2018-11-14T08:31:24.011Z,4.58
2018-11-14T08:36:24.865Z,3.84
2018-11-14T08:41:26.161Z,3.91
2018-11-14T08:46:26.892Z,4.01
2018-11-14T08:51:27.732Z,4.24
2018-11-14T08:56:29.435Z,3.74
2018-11-14T09:01:30.330Z,4.25
2018-11-14T09:06:31.205Z,4.25
2018-11-14T09:11:31.961Z,4.47
2018-11-14T09:16:32.737Z,5.19
2018-11-14T09:21:33.561Z,5.29
2018-11-14T09:26:34.317Z,5.42
2018-11-14T09:31:36.040Z,5.15
2018-11-14T09:36:36.803Z,5.46
2018-11-14T09:41:37.610Z,5.68
2018-11-14T09:46:38.426Z,6.39
2018-11-14T09:51:39.421Z,5.88
2018-11-14T09:56:41.272Z,5.20
2018-11-14T10:01:41.971Z,5.32
2018-11-14T10:06:42.749Z,6.22
2018-11-14T10:11:43.473Z,6.96
2018-11-14T10:16:44.211Z,5.65
2018-11-14T10:21:45.150Z,5.83
2018-11-14T10:26:47.045Z,5.60
2018-11-14T10:31:47.905Z,5.44
2018-11-14T10:36:48.521Z,5.76
2018-11-14T10:41:49.192Z,5.21
2018-11-14T10:46:50.084Z,5.20
2018-11-14T10:51:51.741Z,5.72
2018-11-14T10:56:52.367Z,5.83
2018-11-14T11:01:53.133Z,6.33
2018-11-14T11:06:53.755Z,6.78
2018-11-14T11:11:54.519Z,6.61
2018-11-14T11:16:55.271Z,6.87
2018-11-14T11:21:56.166Z,6.33
2018-11-14T11:26:57.073Z,6.80
2018-11-14T11:31:57.916Z,7.18
2018-11-14T11:36:58.564Z,7.17
2018-11-14T11:41:59.290Z,6.83
2018-11-14T11:47:00.052Z,7.12
2018-11-14T11:52:00.830Z,6.48
2018-11-14T11:57:01.600Z,6.70
2018-11-14T12:02:02.422Z,7.13
2018-11-14T12:07:03.224Z,7.57
2018-11-14T12:12:03.927Z,8.29
2018-11-14T12:17:04.667Z,6.79
2018-11-14T12:22:05.475Z,6.28
2018-11-14T12:27:06.467Z,7.36
2018-11-14T12:32:07.239Z,7.35
2018-11-14T12:37:07.990Z,7.32
2018-11-14T12:42:08.766Z,6.87
2018-11-14T12:47:09.504Z,6.96
2018-11-14T12:52:10.315Z,7.78
2018-11-14T12:57:11.149Z,7.05
2018-11-14T13:02:11.959Z,6.98
2018-11-14T13:07:13.763Z,7.57
2018-11-14T13:12:14.517Z,7.25
2018-11-14T13:17:15.224Z,6.85
2018-11-14T13:22:15.994Z,7.71
2018-11-14T13:27:16.853Z,7.95
2018-11-14T13:32:17.590Z,7.60
2018-11-14T13:37:18.332Z,7.62
2018-11-14T13:42:19.023Z,8.42
2018-11-14T13:47:19.756Z,7.73
2018-11-14T13:52:20.651Z,7.18
2018-11-14T13:57:21.402Z,7.27
2018-11-14T14:02:22.683Z,7.73
2018-11-14T14:07:23.379Z,7.69
2018-11-14T14:12:24.132Z,7.13
2018-11-14T14:17:24.971Z,7.35
2018-11-14T14:22:25.609Z,6.73
2018-11-14T14:27:26.466Z,7.19
2018-11-14T14:32:27.177Z,7.38
2018-11-14T14:37:28.159Z,7.47
2018-11-14T14:42:29.127Z,7.38
2018-11-14T14:47:29.869Z,7.36
2018-11-14T14:52:30.549Z,7.56
2018-11-14T14:57:31.904Z,7.56
2018-11-14T15:02:33.520Z,7.78
2018-11-14T15:07:34.236Z,7.65
2018-11-14T15:12:34.959Z,7.25
2018-11-14T15:17:35.743Z,7.17
2018-11-14T15:22:36.596Z,7.30
2018-11-14T15:27:37.566Z,7.47
2018-11-14T15:32:38.583Z,7.40
2018-11-14T15:37:39.533Z,7.44
2018-11-14T15:42:40.413Z,7.61
2018-11-14T15:47:41.077Z,7.69
2018-11-14T15:52:41.777Z,8.22
2018-11-14T15:57:42.786Z,8.20
2018-11-14T16:02:44.662Z,7.92
2018-11-14T16:12:52.507Z,8.19
2018-11-14T16:23:22.664Z,8.17
2018-11-14T16:28:23.362Z,8.11
2018-11-14T16:33:24.025Z,7.46
2018-11-14T16:38:24.673Z,7.97
2018-11-14T16:43:25.336Z,7.78
2018-11-14T16:48:26.151Z,7.32
2018-11-14T16:53:27.865Z,7.76
2018-11-14T16:58:28.550Z,8.21
2018-11-14T17:03:29.277Z,7.95
2018-11-14T17:08:30.041Z,7.93
2018-11-14T17:13:30.814Z,7.13
2018-11-14T17:18:32.297Z,6.94
2018-11-14T17:23:32.965Z,6.79
2018-11-14T17:28:33.628Z,6.68
2018-11-14T17:33:34.265Z,6.65
2018-11-14T17:38:34.933Z,6.68
2018-11-14T17:43:35.733Z,6.32
2018-11-14T17:53:46.300Z,6.25
2018-11-14T17:58:48.013Z,6.46
2018-11-14T18:03:48.729Z,6.83
2018-11-14T18:08:50.025Z,6.69
2018-11-14T18:13:50.900Z,6.42
2018-11-14T18:18:51.535Z,6.70
2018-11-14T18:23:53.132Z,6.61
2018-11-14T18:28:53.755Z,6.36
2018-11-14T18:33:54.406Z,6.45
2018-11-14T18:38:56.099Z,6.66
2018-11-14T18:43:57.794Z,6.87
2018-11-14T18:48:58.436Z,6.79
2018-11-14T18:53:59.127Z,6.97
2018-11-14T18:59:00.021Z,7.23
2018-11-14T19:04:00.869Z,7.35
2018-11-14T19:09:02.683Z,7.36
2018-11-14T19:14:03.407Z,7.15
2018-11-14T19:19:04.176Z,7.21
2018-11-14T19:24:05.564Z,7.41
2018-11-14T19:29:06.484Z,7.47
2018-11-14T19:34:07.521Z,7.57
2018-11-14T19:39:08.204Z,7.56
2018-11-14T19:44:08.887Z,7.38
2018-11-14T19:49:09.681Z,7.11
2018-11-14T19:54:10.276Z,6.77
2018-11-14T19:59:11.063Z,6.57
2018-11-14T20:04:11.749Z,6.69
2018-11-14T20:09:12.469Z,6.53
2018-11-14T20:14:13.229Z,6.52
2018-11-14T20:19:14.144Z,6.65
2018-11-14T20:24:14.957Z,6.34
2018-11-14T20:29:15.656Z,6.36
2018-11-14T20:34:16.341Z,6.55
2018-11-14T20:39:16.953Z,6.38
2018-11-14T20:44:17.678Z,6.64
2018-11-14T20:49:18.445Z,6.61
2018-11-14T20:54:19.753Z,6.46
2018-11-14T20:59:20.629Z,6.42
2018-11-14T21:04:21.584Z,6.51
2018-11-14T21:09:22.309Z,6.59
2018-11-14T21:19:54.621Z,6.62
2018-11-14T21:24:55.442Z,6.56
2018-11-14T21:29:56.125Z,6.56
2018-11-14T21:34:56.724Z,6.43
2018-11-14T21:39:57.411Z,6.49
2018-11-14T21:44:57.996Z,6.49
2018-11-14T21:49:58.732Z,6.60
2018-11-14T21:54:59.699Z,6.63
2018-11-14T22:00:00.608Z,6.51
2018-11-14T22:05:01.297Z,6.58
2018-11-14T22:10:02.463Z,6.97
2018-11-14T22:15:03.216Z,6.76
2018-11-14T22:20:03.968Z,6.62
2018-11-14T22:25:04.701Z,6.90
2018-11-14T22:30:05.397Z,6.80
2018-11-14T22:35:06.193Z,6.66
2018-11-14T22:40:06.879Z,6.64
2018-11-14T22:45:07.557Z,6.56
2018-11-14T22:50:08.195Z,6.64
2018-11-14T22:55:08.848Z,6.56
2018-11-14T23:00:09.533Z,6.66
2018-11-14T23:05:10.266Z,6.79
2018-11-14T23:10:10.952Z,6.68
2018-11-14T23:15:11.609Z,7.04
2018-11-14T23:20:12.198Z,6.98
2018-11-14T23:25:12.847Z,6.61
2018-11-14T23:30:13.502Z,6.52
2018-11-14T23:35:14.142Z,6.72
2018-11-14T23:40:14.781Z,6.92
2018-11-14T23:45:15.443Z,6.72
2018-11-14T23:50:16.107Z,6.72
2018-11-14T23:55:16.742Z,6.92
